createdAt,value
2018-11-20T06:43:54.421Z,16.33
2018-11-20T06:48:20.879Z,14.67
2018-11-20T06:52:34.075Z,16.90
2018-11-20T06:57:00.589Z,17.23
2018-11-20T07:01:18.167Z,16.57
2018-11-20T07:05:34.860Z,17.20
2018-11-20T07:10:03.763Z,15.87
2018-11-20T07:14:28.925Z,16.80
2018-11-20T07:18:51.297Z,17.23
2018-11-20T07:23:11.981Z,17.20
2018-11-20T07:27:39.614Z,16.47
2018-11-20T07:32:03.586Z,18.47
2018-11-20T07:36:39.562Z,16.70
2018-11-20T07:40:52.096Z,17.80
2018-11-20T07:45:10.939Z,16.67
2018-11-20T07:49:31.361Z,18.63
2018-11-20T07:54:00.973Z,16.77
2018-11-20T07:58:24.849Z,17.37
2018-11-20T08:02:53.790Z,17.37
2018-11-20T08:07:22.083Z,19.63
2018-11-20T08:11:42.378Z,17.37
2018-11-20T08:16:18.425Z,16.73
2018-11-20T08:20:48.011Z,17.77
2018-11-20T08:25:02.193Z,19.13
2018-11-20T08:29:19.837Z,18.03
2018-11-20T08:33:48.308Z,17.67
2018-11-20T08:38:11.980Z,17.90
2018-11-20T08:42:34.558Z,18.20
2018-11-20T08:46:57.441Z,18.67
2018-11-20T08:51:21.406Z,18.97
2018-11-20T08:55:54.387Z,18.40
2018-11-20T09:00:15.181Z,20.37
2018-11-20T09:04:37.024Z,20.13
2018-11-20T09:08:59.700Z,20.70
2018-11-20T09:13:22.165Z,20.60
2018-11-20T09:17:48.908Z,21.60
2018-11-20T09:22:14.692Z,21.87
2018-11-20T09:26:32.849Z,22.53
2018-11-20T09:30:55.207Z,24.00
2018-11-20T09:35:18.024Z,20.00
2018-11-20T09:39:41.725Z,23.73
2018-11-20T09:44:18.606Z,23.60
2018-11-20T09:48:55.590Z,24.17
2018-11-20T09:53:28.102Z,25.03
2018-11-20T09:57:50.733Z,23.60
2018-11-20T10:02:08.188Z,27.97
2018-11-20T10:06:32.303Z,26.53
2018-11-20T10:10:55.115Z,26.23
2018-11-20T10:15:17.671Z,27.87
2018-11-20T10:19:40.439Z,27.47
2018-11-20T10:24:01.928Z,28.37
2018-11-20T10:28:26.662Z,28.90
2018-11-20T10:32:52.396Z,31.27
2018-11-20T10:37:25.573Z,28.37
2018-11-20T10:41:51.719Z,25.53
2018-11-20T10:46:12.306Z,30.53
2018-11-20T10:50:34.860Z,29.17
2018-11-20T10:55:04.548Z,26.17
2018-11-20T10:59:29.339Z,27.13
2018-11-20T11:03:51.963Z,27.83
2018-11-20T11:08:14.598Z,27.47
2018-11-20T11:12:59.882Z,26.37
2018-11-20T11:18:00.593Z,27.13
2018-11-20T11:22:41.703Z,26.37
2018-11-20T11:27:36.212Z,26.33
2018-11-20T11:32:27.241Z,25.47
2018-11-20T11:36:57.784Z,29.13
2018-11-20T11:41:33.007Z,25.43
2018-11-20T11:46:27.397Z,27.77
2018-11-20T11:51:04.905Z,24.87
2018-11-20T11:55:51.007Z,27.00
2018-11-20T12:00:33.886Z,27.80
2018-11-20T12:05:28.625Z,26.63
2018-11-20T12:10:13.257Z,28.73
2018-11-20T12:14:40.090Z,26.93
2018-11-20T12:19:04.260Z,28.23
2018-11-20T12:23:27.296Z,26.80
2018-11-20T12:27:49.377Z,26.60
2018-11-20T12:32:12.182Z,27.27
2018-11-20T12:36:43.523Z,25.90
2018-11-20T12:41:07.402Z,24.40
2018-11-20T12:45:28.924Z,27.97
2018-11-20T12:49:51.972Z,25.90
2018-11-20T12:54:08.835Z,27.23
2018-11-20T12:58:31.902Z,27.67
2018-11-20T13:02:54.709Z,27.80
2018-11-20T13:07:17.362Z,26.07
2018-11-20T13:11:44.468Z,24.87
2018-11-20T13:21:15.342Z,29.73
2018-11-20T13:25:48.376Z,26.93
2018-11-20T13:30:19.257Z,25.60
2018-11-20T13:48:08.241Z,26.37
2018-11-20T13:52:37.238Z,27.13
2018-11-20T13:57:00.052Z,27.63
2018-11-20T14:01:33.058Z,25.90
2018-11-20T14:06:10.598Z,27.20
2018-11-20T14:10:33.282Z,24.17
2018-11-20T14:15:09.288Z,24.60
2018-11-20T14:23:18.339Z,26.37
2018-11-20T14:30:54.657Z,28.30
2018-11-20T14:35:17.333Z,25.53
2018-11-20T14:39:56.365Z,26.40
2018-11-20T14:44:18.739Z,27.20
2018-11-20T14:48:48.357Z,28.67
2018-11-20T14:53:28.656Z,27.10
2018-11-20T14:57:51.544Z,28.40
2018-11-20T15:02:14.212Z,26.37
2018-11-20T15:06:37.083Z,32.27
2018-11-20T15:10:57.979Z,28.70
2018-11-20T15:15:31.824Z,27.83
2018-11-20T15:20:07.630Z,28.70
2018-11-20T15:24:30.425Z,28.63
2018-11-20T15:28:49.724Z,27.97
2018-11-20T15:33:12.558Z,28.77
2018-11-20T15:37:36.463Z,30.93
2018-11-20T15:41:59.532Z,28.37
2018-11-20T15:46:22.029Z,34.73
2018-11-20T15:50:50.288Z,32.87
2018-11-20T15:55:29.502Z,30.60
2018-11-20T15:59:56.053Z,29.80
2018-11-20T16:04:24.336Z,35.87
2018-11-20T16:08:46.954Z,33.37
2018-11-20T16:12:58.526Z,32.90
2018-11-20T16:17:28.865Z,30.93
2018-11-20T16:22:08.182Z,30.73
2018-11-20T16:26:41.146Z,30.00
2018-11-20T16:31:20.156Z,35.30
2018-11-20T16:35:39.828Z,32.60
2018-11-20T16:40:22.233Z,31.37
2018-11-20T16:44:51.826Z,33.67
2018-11-20T16:49:14.749Z,34.27
2018-11-20T16:53:37.490Z,31.97
2018-11-20T16:58:00.401Z,31.10
2018-11-20T17:02:39.618Z,32.23
2018-11-20T17:07:06.274Z,32.33
2018-11-20T17:11:28.806Z,31.27
2018-11-20T17:15:52.919Z,32.80
2018-11-20T17:20:23.041Z,30.57
2018-11-20T17:25:02.142Z,32.70
2018-11-20T17:29:24.879Z,31.97
2018-11-20T17:33:47.911Z,33.10
2018-11-20T17:38:14.903Z,31.23
2018-11-20T17:42:50.945Z,33.30
2018-11-20T17:47:30.283Z,31.73
2018-11-20T17:51:56.756Z,30.53
2018-11-20T17:56:32.755Z,30.13
2018-11-20T18:01:02.697Z,31.53
2018-11-20T18:05:32.562Z,30.53
2018-11-20T18:09:57.031Z,33.93
2018-11-20T18:14:06.306Z,31.60
2018-11-20T18:18:49.308Z,33.17
2018-11-20T18:23:12.028Z,29.33
2018-11-20T18:27:34.975Z,30.90
2018-11-20T18:32:01.697Z,31.43
2018-11-20T18:36:28.283Z,30.07
2018-11-20T18:40:50.847Z,30.50
2018-11-20T18:45:24.033Z,27.17
2018-11-20T18:49:44.851Z,30.20
2018-11-20T18:54:08.103Z,30.63
2018-11-20T18:58:19.382Z,27.80
2018-11-20T19:02:43.347Z,28.50
2018-11-20T19:07:10.256Z,24.30
2018-11-20T19:11:31.293Z,26.13
2018-11-20T19:16:13.624Z,26.50
2018-11-20T19:20:49.539Z,25.03
2018-11-20T19:25:12.190Z,22.03
2018-11-20T19:29:35.159Z,24.37
2018-11-20T19:33:57.804Z,23.47
2018-11-20T19:38:18.758Z,24.87
2018-11-20T19:42:57.812Z,22.17
2018-11-20T19:47:24.568Z,23.60
2018-11-20T19:52:03.548Z,22.40
2018-11-20T19:56:26.236Z,24.47
2018-11-20T20:00:49.371Z,23.53
2018-11-20T20:05:13.597Z,22.83
2018-11-20T20:09:41.158Z,22.17
2018-11-20T20:14:05.666Z,22.50
2018-11-20T20:18:28.420Z,22.90
2018-11-20T20:23:05.540Z,23.00
2018-11-20T20:27:32.502Z,23.00
2018-11-20T20:31:55.121Z,23.93
2018-11-20T20:36:34.733Z,23.67
2018-11-20T20:41:04.474Z,24.30
2018-11-20T20:45:58.817Z,23.33
2018-11-20T20:50:46.716Z,23.87
2018-11-20T20:57:32.288Z,26.40
2018-11-20T21:00:33.596Z,22.23
2018-11-20T21:04:58.328Z,22.63
2018-11-20T21:09:21.843Z,22.87
2018-11-20T21:13:52.931Z,26.17
2018-11-20T21:18:35.558Z,26.03
2018-11-20T21:23:13.916Z,24.53
2018-11-20T21:27:37.699Z,24.27
2018-11-20T21:32:04.838Z,24.83
2018-11-20T21:36:29.145Z,23.83
2018-11-20T21:40:51.972Z,25.10
2018-11-20T21:45:21.792Z,25.87
2018-11-20T21:49:45.050Z,28.13
2018-11-20T21:54:08.499Z,25.37
2018-11-20T21:58:32.366Z,25.40
2018-11-20T22:03:01.278Z,24.27
2018-11-20T22:07:24.868Z,27.10
2018-11-20T22:11:48.829Z,24.47
2018-11-20T22:16:17.307Z,25.47
2018-11-20T22:20:39.979Z,25.43
2018-11-20T22:25:06.615Z,24.50
2018-11-20T22:29:33.473Z,27.40
2018-11-20T22:33:53.327Z,24.60
2018-11-20T22:38:16.131Z,24.57
2018-11-20T22:42:30.996Z,24.97
2018-11-20T22:46:54.882Z,24.60
2018-11-20T22:51:30.908Z,26.97
2018-11-20T22:55:46.830Z,25.90
2018-11-20T23:00:09.773Z,26.43
2018-11-20T23:04:45.847Z,27.53
2018-11-20T23:08:50.601Z,28.27
2018-11-20T23:12:55.382Z,28.77
2018-11-20T23:17:00.153Z,30.17
2018-11-20T23:21:04.965Z,25.70
2018-11-20T23:25:13.793Z,27.13
2018-11-20T23:29:18.571Z,29.27
2018-11-20T23:33:23.315Z,28.00
2018-11-20T23:37:28.064Z,28.77
2018-11-20T23:41:32.805Z,28.43
2018-11-20T23:45:37.531Z,27.40
2018-11-20T23:49:42.350Z,27.20
2018-11-20T23:53:47.068Z,26.00
2018-11-20T23:57:51.839Z,24.43
